sensor_id;sensor_type;location;lat;lon;timestamp;P1;durP1;ratioP1;P2;durP2;ratioP2
66874;SDS011;53784;52.630;4.896;2023-05-09T00:00:18;22.70;;;10.50;;
66874;SDS011;53784;52.630;4.896;2023-05-09T00:02:44;24.25;;;11.40;;
66874;SDS011;53784;52.630;4.896;2023-05-09T00:05:09;20.05;;;10.57;;
66874;SDS011;53784;52.630;4.896;2023-05-09T00:07:35;24.85;;;12.02;;
66874;SDS011;53784;52.630;4.896;2023-05-09T00:10:00;25.42;;;11.95;;
66874;SDS011;53784;52.630;4.896;2023-05-09T00:12:26;27.90;;;12.43;;
66874;SDS011;53784;52.630;4.896;2023-05-09T00:14:52;24.52;;;11.70;;
66874;SDS011;53784;52.630;4.896;2023-05-09T00:17:18;28.58;;;12.65;;
66874;SDS011;53784;52.630;4.896;2023-05-09T00:19:44;27.13;;;12.38;;
66874;SDS011;53784;52.630;4.896;2023-05-09T00:22:09;25.05;;;11.73;;
66874;SDS011;53784;52.630;4.896;2023-05-09T00:24:36;30.92;;;13.07;;
66874;SDS011;53784;52.630;4.896;2023-05-09T00:27:02;28.48;;;12.63;;
66874;SDS011;53784;52.630;4.896;2023-05-09T00:29:27;28.83;;;13.00;;
66874;SDS011;53784;52.630;4.896;2023-05-09T00:31:53;28.95;;;12.57;;
66874;SDS011;53784;52.630;4.896;2023-05-09T00:34:18;29.63;;;12.98;;
66874;SDS011;53784;52.630;4.896;2023-05-09T00:36:44;28.73;;;13.35;;
66874;SDS011;53784;52.630;4.896;2023-05-09T00:39:10;31.08;;;13.43;;
66874;SDS011;53784;52.630;4.896;2023-05-09T00:41:36;33.30;;;13.73;;
66874;SDS011;53784;52.630;4.896;2023-05-09T00:44:01;28.73;;;13.73;;
66874;SDS011;53784;52.630;4.896;2023-05-09T00:46:27;31.88;;;14.20;;
66874;SDS011;53784;52.630;4.896;2023-05-09T00:48:52;31.27;;;13.55;;
66874;SDS011;53784;52.630;4.896;2023-05-09T00:51:17;29.80;;;14.15;;
66874;SDS011;53784;52.630;4.896;2023-05-09T00:53:43;34.38;;;15.20;;
66874;SDS011;53784;52.630;4.896;2023-05-09T00:56:10;37.08;;;14.73;;
66874;SDS011;53784;52.630;4.896;2023-05-09T00:58:35;35.25;;;14.63;;
66874;SDS011;53784;52.630;4.896;2023-05-09T01:01:01;30.98;;;14.38;;
66874;SDS011;53784;52.630;4.896;2023-05-09T01:03:27;35.80;;;15.23;;
66874;SDS011;53784;52.630;4.896;2023-05-09T01:05:55;34.28;;;15.07;;
66874;SDS011;53784;52.630;4.896;2023-05-09T01:08:36;34.93;;;15.97;;
66874;SDS011;53784;52.630;4.896;2023-05-09T01:11:19;38.17;;;15.95;;
66874;SDS011;53784;52.630;4.896;2023-05-09T01:16:34;34.80;;;16.58;;
66874;SDS011;53784;52.630;4.896;2023-05-09T01:22:11;39.35;;;16.20;;
66874;SDS011;53784;52.630;4.896;2023-05-09T01:27:32;40.22;;;17.38;;
66874;SDS011;53784;52.630;4.896;2023-05-09T01:30:03;38.92;;;17.77;;
66874;SDS011;53784;52.630;4.896;2023-05-09T01:32:29;41.33;;;17.25;;
66874;SDS011;53784;52.630;4.896;2023-05-09T01:34:58;39.75;;;17.52;;
66874;SDS011;53784;52.630;4.896;2023-05-09T01:37:27;42.65;;;18.02;;
66874;SDS011;53784;52.630;4.896;2023-05-09T01:39:55;43.80;;;18.53;;
66874;SDS011;53784;52.630;4.896;2023-05-09T01:42:22;42.85;;;18.52;;
66874;SDS011;53784;52.630;4.896;2023-05-09T01:44:49;49.67;;;20.00;;
66874;SDS011;53784;52.630;4.896;2023-05-09T01:47:15;46.15;;;19.38;;
66874;SDS011;53784;52.630;4.896;2023-05-09T01:49:40;49.75;;;19.83;;
66874;SDS011;53784;52.630;4.896;2023-05-09T01:52:09;50.10;;;20.67;;
66874;SDS011;53784;52.630;4.896;2023-05-09T01:54:36;47.72;;;20.30;;
66874;SDS011;53784;52.630;4.896;2023-05-09T01:57:02;52.33;;;20.88;;
66874;SDS011;53784;52.630;4.896;2023-05-09T01:59:28;52.38;;;20.20;;
66874;SDS011;53784;52.630;4.896;2023-05-09T02:01:54;50.95;;;20.27;;
66874;SDS011;53784;52.630;4.896;2023-05-09T02:04:20;51.60;;;21.73;;
66874;SDS011;53784;52.630;4.896;2023-05-09T02:06:46;52.10;;;21.55;;
66874;SDS011;53784;52.630;4.896;2023-05-09T02:09:15;50.17;;;20.98;;
66874;SDS011;53784;52.630;4.896;2023-05-09T02:11:41;53.35;;;21.85;;
66874;SDS011;53784;52.630;4.896;2023-05-09T02:14:06;49.35;;;20.52;;
66874;SDS011;53784;52.630;4.896;2023-05-09T02:16:32;54.65;;;22.13;;
66874;SDS011;53784;52.630;4.896;2023-05-09T02:18:57;51.63;;;22.17;;
66874;SDS011;53784;52.630;4.896;2023-05-09T02:21:23;50.20;;;21.58;;
66874;SDS011;53784;52.630;4.896;2023-05-09T02:23:48;51.97;;;21.42;;
66874;SDS011;53784;52.630;4.896;2023-05-09T02:26:14;60.63;;;22.40;;
66874;SDS011;53784;52.630;4.896;2023-05-09T02:28:39;54.70;;;22.02;;
66874;SDS011;53784;52.630;4.896;2023-05-09T02:31:06;56.38;;;23.17;;
66874;SDS011;53784;52.630;4.896;2023-05-09T02:33:33;53.17;;;22.33;;
66874;SDS011;53784;52.630;4.896;2023-05-09T02:35:59;53.80;;;22.65;;
66874;SDS011;53784;52.630;4.896;2023-05-09T02:38:24;51.50;;;20.90;;
66874;SDS011;53784;52.630;4.896;2023-05-09T02:40:51;55.50;;;22.30;;
66874;SDS011;53784;52.630;4.896;2023-05-09T02:43:17;59.92;;;23.73;;
66874;SDS011;53784;52.630;4.896;2023-05-09T02:45:42;53.88;;;21.80;;
66874;SDS011;53784;52.630;4.896;2023-05-09T02:48:07;58.42;;;24.10;;
66874;SDS011;53784;52.630;4.896;2023-05-09T02:50:33;58.13;;;23.33;;
66874;SDS011;53784;52.630;4.896;2023-05-09T02:52:58;55.55;;;23.33;;
66874;SDS011;53784;52.630;4.896;2023-05-09T02:55:24;61.03;;;23.38;;
66874;SDS011;53784;52.630;4.896;2023-05-09T02:57:49;60.63;;;23.85;;
66874;SDS011;53784;52.630;4.896;2023-05-09T03:00:15;60.10;;;24.05;;
66874;SDS011;53784;52.630;4.896;2023-05-09T03:02:42;59.15;;;23.67;;
66874;SDS011;53784;52.630;4.896;2023-05-09T03:05:07;62.67;;;23.63;;
66874;SDS011;53784;52.630;4.896;2023-05-09T03:07:33;56.80;;;23.13;;
66874;SDS011;53784;52.630;4.896;2023-05-09T03:09:58;58.13;;;24.05;;
66874;SDS011;53784;52.630;4.896;2023-05-09T03:12:24;59.72;;;23.02;;
66874;SDS011;53784;52.630;4.896;2023-05-09T03:14:49;57.72;;;24.30;;
66874;SDS011;53784;52.630;4.896;2023-05-09T03:17:14;60.28;;;24.73;;
66874;SDS011;53784;52.630;4.896;2023-05-09T03:19:44;58.17;;;24.77;;
66874;SDS011;53784;52.630;4.896;2023-05-09T03:22:10;56.55;;;23.67;;
66874;SDS011;53784;52.630;4.896;2023-05-09T03:24:35;60.85;;;24.38;;
66874;SDS011;53784;52.630;4.896;2023-05-09T03:27:00;61.63;;;25.00;;
66874;SDS011;53784;52.630;4.896;2023-05-09T03:29:26;59.42;;;24.30;;
66874;SDS011;53784;52.630;4.896;2023-05-09T03:31:51;61.75;;;24.45;;
66874;SDS011;53784;52.630;4.896;2023-05-09T03:34:16;58.30;;;24.52;;
66874;SDS011;53784;52.630;4.896;2023-05-09T03:36:42;56.60;;;23.38;;
66874;SDS011;53784;52.630;4.896;2023-05-09T03:39:08;58.63;;;23.25;;
66874;SDS011;53784;52.630;4.896;2023-05-09T03:41:34;59.28;;;23.65;;
66874;SDS011;53784;52.630;4.896;2023-05-09T03:44:00;59.65;;;24.67;;
66874;SDS011;53784;52.630;4.896;2023-05-09T03:46:25;55.28;;;24.02;;
66874;SDS011;53784;52.630;4.896;2023-05-09T03:48:50;59.70;;;23.73;;
66874;SDS011;53784;52.630;4.896;2023-05-09T03:51:16;59.35;;;24.08;;
66874;SDS011;53784;52.630;4.896;2023-05-09T03:53:42;52.58;;;22.73;;
66874;SDS011;53784;52.630;4.896;2023-05-09T03:56:09;53.90;;;23.55;;
66874;SDS011;53784;52.630;4.896;2023-05-09T03:58:35;53.72;;;23.13;;
66874;SDS011;53784;52.630;4.896;2023-05-09T04:01:00;54.13;;;23.05;;
66874;SDS011;53784;52.630;4.896;2023-05-09T04:03:25;53.22;;;23.65;;
66874;SDS011;53784;52.630;4.896;2023-05-09T04:05:52;59.92;;;24.83;;
66874;SDS011;53784;52.630;4.896;2023-05-09T04:08:18;58.22;;;23.45;;
66874;SDS011;53784;52.630;4.896;2023-05-09T04:10:43;50.15;;;22.65;;
66874;SDS011;53784;52.630;4.896;2023-05-09T04:13:08;49.42;;;21.77;;
66874;SDS011;53784;52.630;4.896;2023-05-09T04:15:33;47.80;;;21.42;;
66874;SDS011;53784;52.630;4.896;2023-05-09T04:17:59;51.50;;;22.63;;
66874;SDS011;53784;52.630;4.896;2023-05-09T04:20:24;51.13;;;22.08;;
66874;SDS011;53784;52.630;4.896;2023-05-09T04:22:50;45.60;;;20.45;;
66874;SDS011;53784;52.630;4.896;2023-05-09T04:25:15;46.55;;;21.92;;
66874;SDS011;53784;52.630;4.896;2023-05-09T04:27:40;48.10;;;21.48;;
66874;SDS011;53784;52.630;4.896;2023-05-09T04:30:06;49.60;;;21.52;;
66874;SDS011;53784;52.630;4.896;2023-05-09T04:32:32;45.00;;;21.85;;
66874;SDS011;53784;52.630;4.896;2023-05-09T04:34:57;45.63;;;20.23;;
66874;SDS011;53784;52.630;4.896;2023-05-09T04:37:22;48.03;;;21.10;;
66874;SDS011;53784;52.630;4.896;2023-05-09T04:39:48;46.70;;;21.30;;
66874;SDS011;53784;52.630;4.896;2023-05-09T04:42:13;45.78;;;20.40;;
66874;SDS011;53784;52.630;4.896;2023-05-09T04:44:38;44.58;;;20.98;;
66874;SDS011;53784;52.630;4.896;2023-05-09T04:47:04;43.28;;;20.75;;
66874;SDS011;53784;52.630;4.896;2023-05-09T04:49:29;44.05;;;19.70;;
66874;SDS011;53784;52.630;4.896;2023-05-09T04:51:55;43.28;;;20.70;;
66874;SDS011;53784;52.630;4.896;2023-05-09T04:54:20;40.55;;;19.00;;
66874;SDS011;53784;52.630;4.896;2023-05-09T04:56:45;46.90;;;20.15;;
66874;SDS011;53784;52.630;4.896;2023-05-09T04:59:11;40.20;;;18.50;;
66874;SDS011;53784;52.630;4.896;2023-05-09T05:01:36;39.80;;;18.73;;
66874;SDS011;53784;52.630;4.896;2023-05-09T05:04:01;40.97;;;19.20;;
66874;SDS011;53784;52.630;4.896;2023-05-09T05:06:27;39.03;;;18.92;;
66874;SDS011;53784;52.630;4.896;2023-05-09T05:08:52;40.10;;;18.60;;
66874;SDS011;53784;52.630;4.896;2023-05-09T05:11:17;42.78;;;20.05;;
66874;SDS011;53784;52.630;4.896;2023-05-09T05:13:43;40.72;;;18.30;;
66874;SDS011;53784;52.630;4.896;2023-05-09T05:16:08;38.70;;;18.60;;
66874;SDS011;53784;52.630;4.896;2023-05-09T05:18:34;37.25;;;17.75;;
66874;SDS011;53784;52.630;4.896;2023-05-09T05:20:59;35.85;;;17.88;;
66874;SDS011;53784;52.630;4.896;2023-05-09T05:23:24;37.75;;;18.00;;
66874;SDS011;53784;52.630;4.896;2023-05-09T05:25:50;37.67;;;17.50;;
66874;SDS011;53784;52.630;4.896;2023-05-09T05:28:15;33.38;;;16.65;;
66874;SDS011;53784;52.630;4.896;2023-05-09T05:30:40;32.97;;;16.60;;
66874;SDS011;53784;52.630;4.896;2023-05-09T05:33:06;32.70;;;16.33;;
66874;SDS011;53784;52.630;4.896;2023-05-09T05:35:31;33.17;;;16.15;;
66874;SDS011;53784;52.630;4.896;2023-05-09T05:37:56;32.60;;;16.33;;
66874;SDS011;53784;52.630;4.896;2023-05-09T05:40:21;36.15;;;16.30;;
66874;SDS011;53784;52.630;4.896;2023-05-09T05:42:47;31.77;;;15.57;;
66874;SDS011;53784;52.630;4.896;2023-05-09T05:45:12;29.10;;;15.20;;
66874;SDS011;53784;52.630;4.896;2023-05-09T05:47:37;37.55;;;16.27;;
66874;SDS011;53784;52.630;4.896;2023-05-09T05:50:03;29.70;;;14.93;;
66874;SDS011;53784;52.630;4.896;2023-05-09T05:52:30;27.00;;;13.68;;
66874;SDS011;53784;52.630;4.896;2023-05-09T05:54:56;28.45;;;14.55;;
66874;SDS011;53784;52.630;4.896;2023-05-09T05:57:21;27.55;;;14.10;;
66874;SDS011;53784;52.630;4.896;2023-05-09T05:59:47;26.17;;;13.55;;
66874;SDS011;53784;52.630;4.896;2023-05-09T06:02:13;27.27;;;14.32;;
66874;SDS011;53784;52.630;4.896;2023-05-09T06:04:39;28.70;;;13.80;;
66874;SDS011;53784;52.630;4.896;2023-05-09T06:07:05;28.25;;;14.18;;
66874;SDS011;53784;52.630;4.896;2023-05-09T06:09:30;29.65;;;14.15;;
66874;SDS011;53784;52.630;4.896;2023-05-09T06:11:57;27.88;;;13.68;;
66874;SDS011;53784;52.630;4.896;2023-05-09T06:14:22;27.38;;;12.60;;
66874;SDS011;53784;52.630;4.896;2023-05-09T06:16:50;27.50;;;13.02;;
66874;SDS011;53784;52.630;4.896;2023-05-09T06:19:16;28.05;;;13.18;;
66874;SDS011;53784;52.630;4.896;2023-05-09T06:21:41;25.65;;;12.90;;
66874;SDS011;53784;52.630;4.896;2023-05-09T06:24:07;26.35;;;13.40;;
66874;SDS011;53784;52.630;4.896;2023-05-09T06:26:33;28.08;;;13.57;;
66874;SDS011;53784;52.630;4.896;2023-05-09T06:28:58;26.88;;;12.52;;
66874;SDS011;53784;52.630;4.896;2023-05-09T06:31:23;25.55;;;12.57;;
66874;SDS011;53784;52.630;4.896;2023-05-09T06:33:49;26.73;;;12.55;;
66874;SDS011;53784;52.630;4.896;2023-05-09T06:36:14;27.90;;;13.52;;
66874;SDS011;53784;52.630;4.896;2023-05-09T06:38:39;24.77;;;12.65;;
66874;SDS011;53784;52.630;4.896;2023-05-09T06:41:05;27.55;;;13.27;;
66874;SDS011;53784;52.630;4.896;2023-05-09T06:43:30;27.65;;;13.40;;
66874;SDS011;53784;52.630;4.896;2023-05-09T06:45:55;26.35;;;13.02;;
66874;SDS011;53784;52.630;4.896;2023-05-09T06:48:21;23.38;;;12.82;;
66874;SDS011;53784;52.630;4.896;2023-05-09T06:50:48;26.08;;;13.48;;
66874;SDS011;53784;52.630;4.896;2023-05-09T06:53:13;24.58;;;12.65;;
66874;SDS011;53784;52.630;4.896;2023-05-09T06:55:39;26.33;;;12.85;;
66874;SDS011;53784;52.630;4.896;2023-05-09T06:58:04;25.58;;;12.93;;
66874;SDS011;53784;52.630;4.896;2023-05-09T07:00:30;26.17;;;13.15;;
66874;SDS011;53784;52.630;4.896;2023-05-09T07:02:55;28.48;;;14.23;;
66874;SDS011;53784;52.630;4.896;2023-05-09T07:05:20;28.70;;;13.82;;
66874;SDS011;53784;52.630;4.896;2023-05-09T07:07:45;29.85;;;14.15;;
66874;SDS011;53784;52.630;4.896;2023-05-09T07:10:11;27.42;;;13.68;;
66874;SDS011;53784;52.630;4.896;2023-05-09T07:12:36;34.55;;;13.75;;
66874;SDS011;53784;52.630;4.896;2023-05-09T07:15:02;26.83;;;13.30;;
66874;SDS011;53784;52.630;4.896;2023-05-09T07:17:27;26.58;;;13.10;;
66874;SDS011;53784;52.630;4.896;2023-05-09T07:19:54;30.33;;;13.48;;
66874;SDS011;53784;52.630;4.896;2023-05-09T07:22:19;31.73;;;13.45;;
66874;SDS011;53784;52.630;4.896;2023-05-09T07:24:45;31.42;;;13.95;;
66874;SDS011;53784;52.630;4.896;2023-05-09T07:27:10;26.40;;;13.05;;
66874;SDS011;53784;52.630;4.896;2023-05-09T07:29:35;26.98;;;13.10;;
66874;SDS011;53784;52.630;4.896;2023-05-09T07:32:01;26.17;;;13.27;;
66874;SDS011;53784;52.630;4.896;2023-05-09T07:34:26;29.58;;;13.15;;
66874;SDS011;53784;52.630;4.896;2023-05-09T07:36:51;29.40;;;13.75;;
66874;SDS011;53784;52.630;4.896;2023-05-09T07:39:17;29.40;;;13.57;;
66874;SDS011;53784;52.630;4.896;2023-05-09T07:41:42;28.27;;;12.93;;
66874;SDS011;53784;52.630;4.896;2023-05-09T07:44:07;31.13;;;13.75;;
66874;SDS011;53784;52.630;4.896;2023-05-09T07:46:34;24.38;;;12.75;;
66874;SDS011;53784;52.630;4.896;2023-05-09T07:49:01;26.00;;;13.18;;
66874;SDS011;53784;52.630;4.896;2023-05-09T07:51:27;24.50;;;13.15;;
66874;SDS011;53784;52.630;4.896;2023-05-09T07:53:52;22.13;;;11.68;;
66874;SDS011;53784;52.630;4.896;2023-05-09T07:56:20;26.58;;;12.85;;
66874;SDS011;53784;52.630;4.896;2023-05-09T07:58:45;25.25;;;12.65;;
66874;SDS011;53784;52.630;4.896;2023-05-09T08:01:10;22.08;;;12.00;;
66874;SDS011;53784;52.630;4.896;2023-05-09T08:03:35;22.98;;;12.38;;
66874;SDS011;53784;52.630;4.896;2023-05-09T08:06:01;25.38;;;12.13;;
66874;SDS011;53784;52.630;4.896;2023-05-09T08:08:26;23.17;;;12.38;;
66874;SDS011;53784;52.630;4.896;2023-05-09T08:10:52;21.95;;;11.40;;
66874;SDS011;53784;52.630;4.896;2023-05-09T08:13:17;22.67;;;11.93;;
66874;SDS011;53784;52.630;4.896;2023-05-09T08:15:43;23.90;;;12.57;;
66874;SDS011;53784;52.630;4.896;2023-05-09T08:18:08;24.10;;;12.55;;
66874;SDS011;53784;52.630;4.896;2023-05-09T08:20:34;19.95;;;11.50;;
66874;SDS011;53784;52.630;4.896;2023-05-09T08:23:00;20.65;;;11.18;;
66874;SDS011;53784;52.630;4.896;2023-05-09T08:25:25;16.15;;;9.40;;
66874;SDS011;53784;52.630;4.896;2023-05-09T08:27:50;19.65;;;10.30;;
66874;SDS011;53784;52.630;4.896;2023-05-09T08:30:16;17.83;;;10.35;;
66874;SDS011;53784;52.630;4.896;2023-05-09T08:32:41;19.13;;;10.27;;
66874;SDS011;53784;52.630;4.896;2023-05-09T08:35:06;16.40;;;9.38;;
66874;SDS011;53784;52.630;4.896;2023-05-09T08:37:33;14.60;;;9.43;;
66874;SDS011;53784;52.630;4.896;2023-05-09T08:39:59;15.02;;;8.85;;
66874;SDS011;53784;52.630;4.896;2023-05-09T08:42:25;15.40;;;8.88;;
66874;SDS011;53784;52.630;4.896;2023-05-09T08:44:51;15.07;;;9.00;;
66874;SDS011;53784;52.630;4.896;2023-05-09T08:47:16;15.20;;;9.18;;
66874;SDS011;53784;52.630;4.896;2023-05-09T08:49:41;17.48;;;9.40;;
66874;SDS011;53784;52.630;4.896;2023-05-09T08:52:07;16.40;;;8.75;;
66874;SDS011;53784;52.630;4.896;2023-05-09T08:54:33;17.10;;;9.43;;
66874;SDS011;53784;52.630;4.896;2023-05-09T08:56:59;16.02;;;9.52;;
66874;SDS011;53784;52.630;4.896;2023-05-09T08:59:24;13.27;;;6.65;;
66874;SDS011;53784;52.630;4.896;2023-05-09T09:01:51;14.90;;;8.05;;
66874;SDS011;53784;52.630;4.896;2023-05-09T09:04:17;18.73;;;8.43;;
66874;SDS011;53784;52.630;4.896;2023-05-09T09:06:42;14.60;;;7.63;;
66874;SDS011;53784;52.630;4.896;2023-05-09T09:09:08;12.77;;;7.45;;
66874;SDS011;53784;52.630;4.896;2023-05-09T09:11:35;14.65;;;7.75;;
66874;SDS011;53784;52.630;4.896;2023-05-09T09:14:04;14.13;;;7.38;;
66874;SDS011;53784;52.630;4.896;2023-05-09T09:16:31;14.45;;;7.93;;
66874;SDS011;53784;52.630;4.896;2023-05-09T09:18:57;13.95;;;8.23;;
66874;SDS011;53784;52.630;4.896;2023-05-09T09:21:22;13.77;;;7.82;;
66874;SDS011;53784;52.630;4.896;2023-05-09T09:23:48;14.70;;;8.00;;
66874;SDS011;53784;52.630;4.896;2023-05-09T09:26:14;14.13;;;8.50;;
66874;SDS011;53784;52.630;4.896;2023-05-09T09:28:40;13.20;;;7.90;;
66874;SDS011;53784;52.630;4.896;2023-05-09T09:31:22;14.07;;;8.20;;
66874;SDS011;53784;52.630;4.896;2023-05-09T09:33:48;11.73;;;7.65;;
66874;SDS011;53784;52.630;4.896;2023-05-09T09:36:14;14.23;;;8.43;;
66874;SDS011;53784;52.630;4.896;2023-05-09T09:38:40;15.07;;;8.52;;
66874;SDS011;53784;52.630;4.896;2023-05-09T09:41:07;14.55;;;8.48;;
66874;SDS011;53784;52.630;4.896;2023-05-09T09:43:36;13.50;;;7.93;;
66874;SDS011;53784;52.630;4.896;2023-05-09T09:46:01;15.10;;;9.48;;
66874;SDS011;53784;52.630;4.896;2023-05-09T09:48:33;16.13;;;8.40;;
66874;SDS011;53784;52.630;4.896;2023-05-09T09:51:06;15.85;;;9.05;;
66874;SDS011;53784;52.630;4.896;2023-05-09T09:53:37;14.23;;;8.98;;
66874;SDS011;53784;52.630;4.896;2023-05-09T09:56:06;16.13;;;8.82;;
66874;SDS011;53784;52.630;4.896;2023-05-09T09:58:31;16.02;;;8.93;;
66874;SDS011;53784;52.630;4.896;2023-05-09T10:01:06;16.52;;;9.10;;
66874;SDS011;53784;52.630;4.896;2023-05-09T10:03:36;14.82;;;8.93;;
66874;SDS011;53784;52.630;4.896;2023-05-09T10:06:02;15.27;;;9.07;;
66874;SDS011;53784;52.630;4.896;2023-05-09T10:08:28;13.27;;;8.35;;
66874;SDS011;53784;52.630;4.896;2023-05-09T10:10:53;12.93;;;8.75;;
66874;SDS011;53784;52.630;4.896;2023-05-09T10:13:18;12.68;;;8.75;;
66874;SDS011;53784;52.630;4.896;2023-05-09T10:15:44;13.95;;;8.40;;
66874;SDS011;53784;52.630;4.896;2023-05-09T10:18:10;16.20;;;8.93;;
66874;SDS011;53784;52.630;4.896;2023-05-09T10:20:36;15.30;;;8.68;;
66874;SDS011;53784;52.630;4.896;2023-05-09T10:23:04;14.65;;;8.23;;
66874;SDS011;53784;52.630;4.896;2023-05-09T10:25:32;13.20;;;7.70;;
66874;SDS011;53784;52.630;4.896;2023-05-09T10:27:59;14.07;;;8.10;;
66874;SDS011;53784;52.630;4.896;2023-05-09T10:30:27;11.98;;;7.97;;
66874;SDS011;53784;52.630;4.896;2023-05-09T10:33:03;12.38;;;7.47;;
66874;SDS011;53784;52.630;4.896;2023-05-09T10:35:35;12.88;;;7.05;;
66874;SDS011;53784;52.630;4.896;2023-05-09T10:38:01;9.93;;;6.70;;
66874;SDS011;53784;52.630;4.896;2023-05-09T10:40:27;9.93;;;6.68;;
66874;SDS011;53784;52.630;4.896;2023-05-09T10:42:52;10.05;;;6.57;;
66874;SDS011;53784;52.630;4.896;2023-05-09T10:45:18;10.25;;;5.95;;
66874;SDS011;53784;52.630;4.896;2023-05-09T10:47:47;10.65;;;6.25;;
66874;SDS011;53784;52.630;4.896;2023-05-09T10:50:14;10.75;;;6.70;;
66874;SDS011;53784;52.630;4.896;2023-05-09T10:55:37;7.80;;;5.30;;
66874;SDS011;53784;52.630;4.896;2023-05-09T10:58:16;8.50;;;6.20;;
66874;SDS011;53784;52.630;4.896;2023-05-09T11:00:49;12.18;;;6.20;;
66874;SDS011;53784;52.630;4.896;2023-05-09T11:03:16;12.82;;;6.95;;
66874;SDS011;53784;52.630;4.896;2023-05-09T11:05:45;11.38;;;6.78;;
66874;SDS011;53784;52.630;4.896;2023-05-09T11:08:22;10.57;;;6.38;;
66874;SDS011;53784;52.630;4.896;2023-05-09T11:10:55;8.70;;;5.07;;
66874;SDS011;53784;52.630;4.896;2023-05-09T11:13:22;12.63;;;6.45;;
66874;SDS011;53784;52.630;4.896;2023-05-09T11:18:23;11.25;;;6.13;;
66874;SDS011;53784;52.630;4.896;2023-05-09T11:20:48;9.55;;;6.07;;
66874;SDS011;53784;52.630;4.896;2023-05-09T11:23:15;11.18;;;6.32;;
66874;SDS011;53784;52.630;4.896;2023-05-09T11:25:42;9.50;;;5.78;;
66874;SDS011;53784;52.630;4.896;2023-05-09T11:28:10;11.70;;;6.72;;
66874;SDS011;53784;52.630;4.896;2023-05-09T11:30:50;10.20;;;6.53;;
66874;SDS011;53784;52.630;4.896;2023-05-09T11:33:22;10.60;;;6.43;;
66874;SDS011;53784;52.630;4.896;2023-05-09T11:38:39;10.02;;;6.30;;
66874;SDS011;53784;52.630;4.896;2023-05-09T11:41:05;10.20;;;6.03;;
66874;SDS011;53784;52.630;4.896;2023-05-09T11:43:31;10.82;;;6.38;;
66874;SDS011;53784;52.630;4.896;2023-05-09T11:45:57;11.10;;;6.50;;
66874;SDS011;53784;52.630;4.896;2023-05-09T11:48:23;9.02;;;6.50;;
66874;SDS011;53784;52.630;4.896;2023-05-09T11:50:48;12.30;;;6.80;;
66874;SDS011;53784;52.630;4.896;2023-05-09T11:53:14;9.68;;;6.30;;
66874;SDS011;53784;52.630;4.896;2023-05-09T11:55:39;9.13;;;5.95;;
66874;SDS011;53784;52.630;4.896;2023-05-09T11:58:05;7.68;;;4.82;;
66874;SDS011;53784;52.630;4.896;2023-05-09T12:00:31;9.48;;;5.60;;
66874;SDS011;53784;52.630;4.896;2023-05-09T12:02:56;10.10;;;5.82;;
66874;SDS011;53784;52.630;4.896;2023-05-09T12:05:22;9.40;;;5.90;;
66874;SDS011;53784;52.630;4.896;2023-05-09T12:07:47;7.57;;;5.28;;
66874;SDS011;53784;52.630;4.896;2023-05-09T12:10:20;8.15;;;5.28;;
66874;SDS011;53784;52.630;4.896;2023-05-09T12:12:50;6.88;;;4.88;;
66874;SDS011;53784;52.630;4.896;2023-05-09T12:15:17;8.95;;;6.15;;
66874;SDS011;53784;52.630;4.896;2023-05-09T12:17:43;8.52;;;5.63;;
66874;SDS011;53784;52.630;4.896;2023-05-09T12:20:09;7.68;;;5.78;;
66874;SDS011;53784;52.630;4.896;2023-05-09T12:22:35;9.50;;;6.13;;
66874;SDS011;53784;52.630;4.896;2023-05-09T12:25:07;8.77;;;6.07;;
66874;SDS011;53784;52.630;4.896;2023-05-09T12:27:34;10.40;;;6.18;;
66874;SDS011;53784;52.630;4.896;2023-05-09T12:30:00;8.43;;;5.25;;
66874;SDS011;53784;52.630;4.896;2023-05-09T12:32:26;9.48;;;5.65;;
66874;SDS011;53784;52.630;4.896;2023-05-09T12:34:57;10.77;;;6.13;;
66874;SDS011;53784;52.630;4.896;2023-05-09T12:37:23;9.20;;;5.93;;
66874;SDS011;53784;52.630;4.896;2023-05-09T12:40:02;9.30;;;5.47;;
66874;SDS011;53784;52.630;4.896;2023-05-09T12:42:29;7.53;;;5.47;;
66874;SDS011;53784;52.630;4.896;2023-05-09T12:44:55;8.02;;;5.43;;
66874;SDS011;53784;52.630;4.896;2023-05-09T12:47:21;7.80;;;5.60;;
66874;SDS011;53784;52.630;4.896;2023-05-09T12:49:49;8.65;;;6.30;;
66874;SDS011;53784;52.630;4.896;2023-05-09T12:52:16;10.15;;;5.90;;
66874;SDS011;53784;52.630;4.896;2023-05-09T12:54:45;8.18;;;5.53;;
66874;SDS011;53784;52.630;4.896;2023-05-09T12:57:24;8.85;;;4.88;;
66874;SDS011;53784;52.630;4.896;2023-05-09T12:59:56;6.95;;;5.15;;
66874;SDS011;53784;52.630;4.896;2023-05-09T13:02:22;7.45;;;5.10;;
66874;SDS011;53784;52.630;4.896;2023-05-09T13:04:49;8.45;;;5.22;;
66874;SDS011;53784;52.630;4.896;2023-05-09T13:07:15;10.68;;;5.22;;
66874;SDS011;53784;52.630;4.896;2023-05-09T13:09:53;7.70;;;5.53;;
66874;SDS011;53784;52.630;4.896;2023-05-09T13:12:19;7.75;;;5.15;;
66874;SDS011;53784;52.630;4.896;2023-05-09T13:14:44;8.80;;;5.38;;
66874;SDS011;53784;52.630;4.896;2023-05-09T13:17:10;8.48;;;5.55;;
66874;SDS011;53784;52.630;4.896;2023-05-09T13:19:35;8.30;;;5.45;;
66874;SDS011;53784;52.630;4.896;2023-05-09T13:22:03;10.27;;;6.47;;
66874;SDS011;53784;52.630;4.896;2023-05-09T13:24:28;10.50;;;5.95;;
66874;SDS011;53784;52.630;4.896;2023-05-09T13:26:53;8.40;;;5.32;;
66874;SDS011;53784;52.630;4.896;2023-05-09T13:29:19;9.05;;;5.55;;
66874;SDS011;53784;52.630;4.896;2023-05-09T13:31:44;7.82;;;5.18;;
66874;SDS011;53784;52.630;4.896;2023-05-09T13:34:10;8.95;;;5.63;;
66874;SDS011;53784;52.630;4.896;2023-05-09T13:36:35;8.95;;;5.35;;
66874;SDS011;53784;52.630;4.896;2023-05-09T13:39:00;8.23;;;5.60;;
66874;SDS011;53784;52.630;4.896;2023-05-09T13:41:25;7.53;;;5.40;;
66874;SDS011;53784;52.630;4.896;2023-05-09T13:43:51;7.45;;;5.28;;
66874;SDS011;53784;52.630;4.896;2023-05-09T13:46:16;7.53;;;5.25;;
66874;SDS011;53784;52.630;4.896;2023-05-09T13:48:41;6.70;;;4.90;;
66874;SDS011;53784;52.630;4.896;2023-05-09T13:51:08;6.32;;;4.50;;
66874;SDS011;53784;52.630;4.896;2023-05-09T13:53:33;6.53;;;4.75;;
66874;SDS011;53784;52.630;4.896;2023-05-09T13:55:59;5.75;;;4.15;;
66874;SDS011;53784;52.630;4.896;2023-05-09T13:58:24;6.70;;;4.78;;
66874;SDS011;53784;52.630;4.896;2023-05-09T14:00:49;5.63;;;4.07;;
66874;SDS011;53784;52.630;4.896;2023-05-09T14:03:15;6.40;;;4.40;;
66874;SDS011;53784;52.630;4.896;2023-05-09T14:05:40;6.80;;;4.57;;
66874;SDS011;53784;52.630;4.896;2023-05-09T14:08:06;6.60;;;4.88;;
66874;SDS011;53784;52.630;4.896;2023-05-09T14:10:32;5.75;;;4.43;;
66874;SDS011;53784;52.630;4.896;2023-05-09T14:12:57;6.57;;;4.60;;
66874;SDS011;53784;52.630;4.896;2023-05-09T14:15:22;6.13;;;3.78;;
66874;SDS011;53784;52.630;4.896;2023-05-09T14:17:47;6.18;;;3.58;;
66874;SDS011;53784;52.630;4.896;2023-05-09T14:20:13;4.90;;;2.92;;
66874;SDS011;53784;52.630;4.896;2023-05-09T14:22:39;5.18;;;3.42;;
66874;SDS011;53784;52.630;4.896;2023-05-09T14:25:05;5.15;;;3.65;;
66874;SDS011;53784;52.630;4.896;2023-05-09T14:27:30;6.07;;;3.60;;
66874;SDS011;53784;52.630;4.896;2023-05-09T14:29:56;6.28;;;4.07;;
66874;SDS011;53784;52.630;4.896;2023-05-09T14:32:21;5.85;;;4.10;;
66874;SDS011;53784;52.630;4.896;2023-05-09T14:34:46;7.88;;;4.32;;
66874;SDS011;53784;52.630;4.896;2023-05-09T14:37:13;6.10;;;4.43;;
66874;SDS011;53784;52.630;4.896;2023-05-09T14:39:39;6.28;;;4.38;;